Terminal Aerodrome Forecast
Issued by NWS

Home | Current Version | Previous Version | Text Only | Print | Product List | Glossary On
Versions: 1 2 3 4 5 6 7 8 9 10 11 12 13 14 15 16 17 18 19 20 21 22 23 24 25
394
FTUS44 KTSA 181611 AAC
TAFXNA
TAF AMD
KXNA 181611Z 1816/1912 20005KT P6SM SCT010 BKN015
      TEMPO 1816/1818 SCT015 BKN035
     FM181800 21008KT P6SM BKN035
     FM190300 21003KT P6SM SCT040 OVC250 PROB30 1904/1910 3SM -TSRA
      BKN025CB=

USA.gov is the U.S. government's official web portal to all federal, state and local government web resources and services.